Patriot, Indiana
Current Conditions -  °F | °C
As of 7:52 PM on Wednesday 22 Oct 2014 (Local Time) from KCVG Reporting Station
Broken Clouds Broken Clouds  
Wind Chill: 11°   Ceiling: 2900
Heat Index: 11°   Visibility: 10mi
Dew Point:   Wind: 7mph
Humidity: 63%   Direction: 70°ENE
Pressure: 30.26"   Gusts: NA
Location:  38.84°N, 84.83°W
Report Text: KCVG 222352Z 07006KT 10SM BKN029 11/04 A3026 RMK AO2 SLP247 T01060039 10133 20100 53001
Loading
Personal Weather Stations






























Interactive Weather Map
Tropical Storm Tracking
New forecast layout! Learn more

10-Day Weather Forecast

Advertisements
Track Severe Weather on mobile